Time;durP1;ratioP1;P1;durP2;ratioP2;P2;SDS_P1;SDS_P2;PMS_P1;PMS_P2;Temp;Humidity;BMP_temperature;BMP_pressure;BME280_temperature;BME280_humidity;BME280_pressure;Samples;Min_cycle;Max_cycle;Signal;HPM_P1;HPM_P2
2022/09/29 00:03:26;;;;;;;0.30;0.28;;;;;;;17.23;97.37;99660.00;21218451;27;20115;-78
2022/09/29 00:13:28;;;;;;;0.50;0.32;;;;;;;16.91;97.21;99619.34;21216942;27;20053;-76
2022/09/29 00:23:30;;;;;;;0.95;0.30;;;;;;;17.12;97.09;99647.69;21218866;27;20043;-76
2022/09/29 00:33:34;;;;;;;0.77;0.50;;;;;;;17.12;97.14;99639.63;21140614;27;20042;-75
2022/09/29 00:44:00;;;;;;;0.88;0.45;;;;;;;17.22;97.09;99661.00;21214911;27;20126;-76
2022/09/29 00:54:02;;;;;;;0.30;0.30;;;;;;;16.92;96.97;99618.34;21175649;27;1063350;-76
2022/09/29 01:04:10;;;;;;;0.25;0.20;;;;;;;17.06;96.99;99642.97;21215739;27;20134;-76
2022/09/29 01:14:11;;;;;;;0.22;0.20;;;;;;;17.19;97.05;99664.03;21223367;27;20059;-76
2022/09/29 01:24:38;;;;;;;0.30;0.30;;;;;;;17.19;96.80;99664.84;21215816;27;20043;-76
2022/09/29 01:34:49;;;;;;;0.45;0.32;;;;;;;17.05;96.88;99646.66;21172540;27;20099;-76
2022/09/29 01:44:56;;;;;;;0.30;0.30;;;;;;;17.18;96.72;99662.34;21213337;27;20100;-76
2022/09/29 01:55:05;;;;;;;0.20;0.20;;;;;;;17.17;96.71;99672.25;21213966;27;20043;-76
2022/09/29 02:05:12;;;;;;;0.28;0.28;;;;;;;16.99;96.59;99634.69;21214684;27;20456;-75
2022/09/29 02:15:21;;;;;;;0.20;0.20;;;;;;;17.17;96.25;99672.25;21213256;27;20045;-76
2022/09/29 02:25:23;;;;;;;0.75;0.30;;;;;;;17.17;96.59;99674.94;21208149;27;20043;-76
2022/09/29 02:35:42;;;;;;;0.30;0.20;;;;;;;17.17;96.42;99671.41;21144631;27;20055;-76
2022/09/29 02:46:04;;;;;;;0.28;0.20;;;;;;;17.16;96.22;99683.19;21193608;27;20063;-76
2022/09/29 02:56:28;;;;;;;0.75;0.30;;;;;;;17.16;96.21;99678.63;21211623;27;20070;-75
2022/09/29 03:06:30;;;;;;;0.32;0.20;;;;;;;16.98;96.06;99645.63;21192965;27;20099;-75
2022/09/29 03:16:32;;;;;;;0.10;0.10;;;;;;;16.96;96.18;99651.97;21209557;27;20146;-76
2022/09/29 03:26:34;;;;;;;0.22;0.20;;;;;;;16.97;96.22;99652.78;21167378;27;20062;-75
2022/09/29 03:36:36;;;;;;;0.20;0.20;;;;;;;17.13;95.90;99678.94;21167101;27;20460;-75
2022/09/29 03:46:37;;;;;;;0.20;0.20;;;;;;;16.86;96.02;99651.25;21212398;27;20096;-75
2022/09/29 03:56:39;;;;;;;0.30;0.25;;;;;;;17.05;96.05;99684.28;21225616;27;20067;-76
2022/09/29 04:06:40;;;;;;;0.28;0.20;;;;;;;17.04;95.83;99693.38;21222228;27;20055;-76
2022/09/29 04:16:42;;;;;;;0.45;0.20;;;;;;;17.14;95.79;99714.75;21107611;27;20080;-75
2022/09/29 04:26:43;;;;;;;0.10;0.10;;;;;;;17.07;95.68;99712.72;20708785;27;20511;-76
2022/09/29 04:36:45;;;;;;;0.20;0.10;;;;;;;17.14;95.68;99720.16;20728824;27;20137;-76
2022/09/29 04:46:50;;;;;;;0.20;0.20;;;;;;;17.13;95.77;99724.66;20786469;27;20045;-76
2022/09/29 04:56:52;;;;;;;;;;;;;;;17.13;95.64;99724.66;20773038;27;20086;-76
2022/09/29 05:06:53;;;;;;;0.20;0.20;;;;;;;17.13;95.51;99723.84;20781150;27;19926;-75
2022/09/29 05:16:55;;;;;;;0.20;0.20;;;;;;;17.13;95.47;99730.03;20743252;27;20081;-75
2022/09/29 05:26:57;;;;;;;0.60;0.30;;;;;;;17.12;95.36;99736.44;20708157;27;20093;-75
2022/09/29 05:36:59;;;;;;;0.30;0.28;;;;;;;17.13;95.44;99745.34;20711078;27;20426;-76
2022/09/29 05:47:00;;;;;;;0.38;0.20;;;;;;;17.00;95.30;99730.47;20862174;27;20063;-80
2022/09/29 05:57:02;;;;;;;0.20;0.20;;;;;;;17.12;95.30;99759.81;20868395;27;20052;-76
2022/09/29 06:07:03;;;;;;;0.25;0.25;;;;;;;17.12;95.35;99760.63;20850064;27;20056;-76
2022/09/29 06:17:05;;;;;;;0.15;0.15;;;;;;;16.92;95.22;99733.94;20794815;27;20123;-75
2022/09/29 06:27:06;;;;;;;0.25;0.20;;;;;;;17.02;95.30;99759.91;20736854;27;20046;-74
2022/09/29 06:47:28;;;;;;;0.22;0.20;;;;;;;17.13;95.02;99793.75;20738215;27;20050;-75
2022/09/29 06:57:30;;;;;;;0.25;0.20;;;;;;;16.96;95.06;99789.09;20777487;27;20041;-75
2022/09/29 07:07:32;;;;;;;0.95;0.20;;;;;;;17.13;94.85;99826.84;20749860;27;20050;-75
2022/09/29 07:17:34;;;;;;;0.20;0.20;;;;;;;17.12;95.01;99830.56;20723845;27;20132;-74
2022/09/29 07:27:36;;;;;;;0.52;0.30;;;;;;;17.14;94.92;99833.91;20744483;27;20077;-74
2022/09/29 07:37:38;;;;;;;0.20;0.20;;;;;;;17.17;94.93;99857.81;20759812;27;20049;-73
2022/09/29 07:47:40;;;;;;;1.20;0.30;;;;;;;17.21;95.13;99863.72;20735070;27;20046;-73
2022/09/29 07:57:42;;;;;;;0.40;0.28;;;;;;;17.26;95.32;99866.78;20735925;27;20065;-73
2022/09/29 08:07:43;;;;;;;6.22;2.00;;;;;;;17.30;97.00;99883.47;20749939;27;20101;-72
2022/09/29 08:17:45;;;;;;;9.52;1.98;;;;;;;17.47;100.00;99887.94;20750087;27;20419;-73
2022/09/29 08:27:47;;;;;;;8.30;1.27;;;;;;;17.58;100.00;99886.84;20741367;27;20107;-73
2022/09/29 08:37:57;;;;;;;7.18;1.50;;;;;;;17.72;100.00;99896.19;20748550;27;20107;-74
2022/09/29 08:48:11;;;;;;;9.30;1.48;;;;;;;17.53;100.00;99863.09;20726207;27;20053;-74
2022/09/29 08:58:23;;;;;;;3.05;0.93;;;;;;;17.78;100.00;99905.44;20721103;27;20132;-73
2022/09/29 09:08:57;;;;;;;4.35;1.00;;;;;;;17.84;100.00;99934.44;20717774;27;20149;-73
2022/09/29 09:19:33;;;;;;;2.08;0.80;;;;;;;17.87;100.00;99928.72;20718941;27;20054;-73
2022/09/29 09:29:37;;;;;;;2.55;1.00;;;;;;;17.91;99.45;99929.25;20737687;27;20076;-73
2022/09/29 09:39:51;;;;;;;2.10;0.73;;;;;;;17.93;97.70;99927.25;20734431;27;20797;-73
2022/09/29 09:49:57;;;;;;;0.85;0.63;;;;;;;17.94;96.17;99926.25;20714460;27;20077;-73
2022/09/29 10:00:09;;;;;;;2.60;0.70;;;;;;;17.95;94.75;99927.94;20712663;28;20410;-73
2022/09/29 10:10:23;;;;;;;1.53;0.70;;;;;;;17.98;94.64;99935.69;20730575;27;20069;-73
2022/09/29 10:20:35;;;;;;;2.35;0.70;;;;;;;17.99;94.50;99934.69;20731692;27;20387;-73
2022/09/29 10:30:36;;;;;;;0.90;0.57;;;;;;;18.01;94.43;99948.03;20722811;27;20058;-73
2022/09/29 10:40:52;;;;;;;1.50;0.70;;;;;;;18.02;94.53;99950.53;20712484;27;20467;-73
2022/09/29 10:51:00;;;;;;;0.63;0.32;;;;;;;18.03;94.22;99952.22;20737093;27;20053;-73
2022/09/29 11:01:09;;;;;;;0.82;0.55;;;;;;;17.93;94.34;99946.09;20755066;27;20070;-73
2022/09/29 11:11:26;;;;;;;0.80;0.50;;;;;;;18.06;94.09;99976.16;20720779;27;20061;-73
2022/09/29 11:21:37;;;;;;;1.13;0.57;;;;;;;18.08;93.84;99984.91;20728064;27;20057;-73
2022/09/29 11:31:48;;;;;;;1.55;0.50;;;;;;;18.09;93.92;99992.00;20747739;27;20041;-73
2022/09/29 11:42:08;;;;;;;1.17;0.80;;;;;;;18.10;93.59;99990.97;20741992;27;20136;-73
2022/09/29 11:52:23;;;;;;;0.57;0.47;;;;;;;18.02;93.54;99972.09;20718729;27;20132;-73
2022/09/29 12:02:55;;;;;;;0.55;0.40;;;;;;;18.13;93.46;99995.22;20727380;27;20049;-73
2022/09/29 12:13:12;;;;;;;1.92;0.40;;;;;;;18.10;93.33;99995.53;20734418;27;20056;-73
2022/09/29 12:23:15;;;;;;;0.50;0.50;;;;;;;18.11;93.30;100003.44;20719473;27;20509;-73
2022/09/29 12:33:35;;;;;;;1.02;0.50;;;;;;;18.17;92.96;99987.69;20717758;27;20509;-73
2022/09/29 12:43:50;;;;;;;1.10;0.43;;;;;;;18.17;92.89;99995.75;20740168;27;20137;-73
2022/09/29 12:54:19;;;;;;;0.80;0.40;;;;;;;18.19;92.82;99994.56;20751365;27;20077;-73
2022/09/29 13:04:51;;;;;;;0.63;0.30;;;;;;;18.18;92.71;99992.06;20729193;27;20046;-73
2022/09/29 13:15:37;;;;;;;1.02;0.38;;;;;;;18.23;92.37;99985.16;20714416;27;20054;-73
2022/09/29 13:26:05;;;;;;;0.60;0.50;;;;;;;18.24;91.98;100007.56;20714207;27;20070;-73
2022/09/29 13:36:08;;;;;;;1.90;0.50;;;;;;;18.24;91.64;99992.25;20738989;27;20575;-73
2022/09/29 13:46:32;;;;;;;1.75;0.60;;;;;;;18.25;91.38;99999.31;20752971;27;20060;-73
2022/09/29 13:56:36;;;;;;;0.73;0.35;;;;;;;18.25;91.13;100002.00;20742955;27;20076;-73
2022/09/29 14:06:46;;;;;;;1.38;0.40;;;;;;;18.24;91.03;100013.78;20739849;27;20054;-74
2022/09/29 14:17:05;;;;;;;1.25;0.50;;;;;;;18.18;90.70;100013.59;20742153;27;20067;-73
2022/09/29 14:27:12;;;;;;;1.90;0.45;;;;;;;18.09;90.98;100018.09;20765795;27;20567;-73
2022/09/29 14:37:18;;;;;;;1.88;0.40;;;;;;;18.03;91.36;100021.44;20746030;27;20053;-73
2022/09/29 14:58:13;;;;;;;0.30;0.30;;;;;;;17.92;92.05;100030.56;20720484;27;20049;-74
2022/09/29 15:08:30;;;;;;;0.50;0.40;;;;;;;17.90;92.30;100040.66;20716746;27;20052;-73
2022/09/29 15:19:07;;;;;;;0.55;0.50;;;;;;;17.86;92.52;100058.97;20756435;27;20045;-74
2022/09/29 15:29:13;;;;;;;0.88;0.32;;;;;;;17.83;92.59;100070.91;20721748;27;20050;-73
2022/09/29 15:39:35;;;;;;;0.52;0.30;;;;;;;17.80;92.98;100102.66;20686825;27;20151;-75
2022/09/29 15:49:48;;;;;;;1.23;0.43;;;;;;;17.13;93.06;100012.41;20754358;27;20061;-74
2022/09/29 15:59:54;;;;;;;1.65;0.60;;;;;;;17.76;93.46;100114.75;20720404;27;20053;-75
2022/09/29 16:10:02;;;;;;;2.03;0.95;;;;;;;17.74;93.45;100119.44;20722977;27;20107;-75
2022/09/29 16:20:04;;;;;;;3.95;1.20;;;;;;;17.72;93.63;100138.47;20727137;27;20429;-75
2022/09/29 16:30:21;;;;;;;2.63;0.90;;;;;;;17.71;94.01;100150.22;20745403;27;20515;-74
2022/09/29 16:40:23;;;;;;;4.60;1.38;;;;;;;17.68;94.18;100159.44;20721966;27;20050;-73
2022/09/29 16:50:25;;;;;;;4.45;1.50;;;;;;;17.66;94.37;100166.81;20763843;27;20058;-74
2022/09/29 17:00:27;;;;;;;4.40;1.05;;;;;;;17.66;94.57;100177.59;20740913;27;20045;-74
2022/09/29 17:10:29;;;;;;;4.35;1.27;;;;;;;17.65;94.78;100196.56;20728119;27;20410;-74
2022/09/29 17:20:30;;;;;;;6.13;1.55;;;;;;;17.64;95.16;100200.25;20734761;27;20463;-74
2022/09/29 17:30:32;;;;;;;2.28;1.08;;;;;;;17.47;94.94;100186.63;20695175;27;20177;-73
2022/09/29 17:40:36;;;;;;;4.28;1.30;;;;;;;17.61;95.07;100212.19;20746736;27;20052;-74
2022/09/29 17:50:44;;;;;;;5.20;1.37;;;;;;;17.60;95.37;100221.28;20758168;27;20092;-73
2022/09/29 18:00:50;;;;;;;3.28;1.60;;;;;;;17.62;96.44;100223.78;20770552;27;20052;-74
2022/09/29 18:10:54;;;;;;;4.28;1.77;;;;;;;17.69;97.14;100224.91;20761138;27;20418;-74
2022/09/29 18:20:56;;;;;;;5.32;1.50;;;;;;;17.73;97.09;100237.06;20728440;27;20122;-73
2022/09/29 18:31:05;;;;;;;5.03;1.50;;;;;;;17.75;96.74;100245.84;20752066;27;20378;-73
2022/09/29 18:41:17;;;;;;;4.05;1.58;;;;;;;17.57;96.59;100212.63;20795960;27;20506;-74
2022/09/29 18:51:18;;;;;;;2.67;1.75;;;;;;;17.39;96.74;100208.06;20824752;27;20040;-75
2022/09/29 19:01:27;;;;;;;3.28;1.60;;;;;;;17.65;96.83;100259.34;20864110;27;20045;-75
2022/09/29 19:11:28;;;;;;;4.85;1.52;;;;;;;17.63;97.03;100271.25;21099735;27;20468;-75
2022/09/29 19:21:31;;;;;;;4.28;1.88;;;;;;;17.44;96.75;100248.84;21221164;27;20535;-75
2022/09/29 19:31:32;;;;;;;4.00;1.27;;;;;;;17.59;97.03;100286.00;21228727;27;20047;-75
2022/09/29 19:41:35;;;;;;;3.83;1.20;;;;;;;17.22;97.04;100250.91;21227072;27;20047;-75
2022/09/29 19:51:49;;;;;;;3.38;1.42;;;;;;;17.56;96.92;100315.91;21222830;27;20047;-75
2022/09/29 20:01:51;;;;;;;3.53;1.40;;;;;;;17.56;97.03;100313.22;21206387;27;20046;-75
2022/09/29 20:11:53;;;;;;;3.58;1.15;;;;;;;17.45;97.04;100320.50;21161323;27;20472;-75
2022/09/29 20:21:56;;;;;;;4.32;1.42;;;;;;;17.52;96.88;100343.13;21222643;27;20448;-75
2022/09/29 20:31:57;;;;;;;2.60;1.08;;;;;;;17.52;96.92;100359.28;21222840;27;20051;-75
2022/09/29 20:41:59;;;;;;;2.45;1.20;;;;;;;17.05;97.01;100289.31;21221623;27;20134;-75
2022/09/29 20:52:00;;;;;;;2.88;1.17;;;;;;;16.99;97.15;100281.84;21220493;27;20051;-75
2022/09/29 21:02:02;;;;;;;2.25;1.38;;;;;;;17.49;96.92;100364.94;21175612;27;20598;-75
2022/09/29 21:12:03;;;;;;;2.72;1.23;;;;;;;17.50;96.85;100372.03;21213214;27;20129;-75
2022/09/29 21:22:05;;;;;;;2.83;1.13;;;;;;;17.49;96.93;100380.25;21217806;27;20055;-74
2022/09/29 21:32:07;;;;;;;4.03;1.55;;;;;;;17.48;96.95;100384.78;21219541;27;20047;-75
2022/09/29 21:42:08;;;;;;;2.28;1.00;;;;;;;17.39;97.03;100377.59;21217697;27;20130;-75
2022/09/29 21:52:10;;;;;;;2.00;1.20;;;;;;;17.47;97.04;100404.63;21215952;27;20531;-76
2022/09/29 22:02:11;;;;;;;3.03;1.25;;;;;;;17.47;97.14;100406.47;21142002;27;20606;-75
2022/09/29 22:12:13;;;;;;;3.38;1.20;;;;;;;17.46;97.12;100408.31;21216067;27;20058;-75
2022/09/29 22:22:14;;;;;;;2.80;1.33;;;;;;;17.45;97.24;100409.28;21215369;27;20130;-75
2022/09/29 22:32:16;;;;;;;1.80;0.95;;;;;;;17.44;97.09;100404.91;21215154;27;20062;-75
2022/09/29 22:42:18;;;;;;;2.05;1.00;;;;;;;17.36;97.20;100385.97;21210295;27;20050;-75
2022/09/29 22:52:20;;;;;;;2.45;1.20;;;;;;;17.38;97.06;100394.72;21213804;27;20043;-75
2022/09/29 23:02:22;;;;;;;1.90;1.13;;;;;;;17.16;97.17;100369.84;21168472;27;20043;-75
2022/09/29 23:12:27;;;;;;;2.08;1.20;;;;;;;17.43;97.04;100411.28;21210868;27;20043;-75
2022/09/29 23:22:29;;;;;;;2.83;1.08;;;;;;;17.43;97.00;100423.88;21210939;27;20491;-75
2022/09/29 23:32:30;;;;;;;1.63;0.85;;;;;;;17.41;97.14;100424.03;21212108;27;20051;-75
2022/09/29 23:42:33;;;;;;;1.67;0.82;;;;;;;17.42;97.09;100436.50;21209888;27;20053;-75
2022/09/29 23:52:34;;;;;;;2.42;1.10;;;;;;;17.40;97.08;100431.25;21211561;27;20049;-75
